Time;durP1;ratioP1;P1;durP2;ratioP2;P2;SDS_P1;SDS_P2;PMS_P1;PMS_P2;Temp;Humidity;BMP_temperature;BMP_pressure;BME280_temperature;BME280_humidity;BME280_pressure;Samples;Min_cycle;Max_cycle;Signal;HPM_P1;HPM_P2
2021/05/15 00:00:28;;;;;;;3.93;1.10;;;14.30;70.80;;;;;;5094918;28;20451;-66
2021/05/15 00:02:55;;;;;;;2.03;1.03;;;14.30;71.00;;;;;;5094811;28;20460;-66
2021/05/15 00:05:21;;;;;;;1.47;1.20;;;14.30;71.00;;;;;;5094834;28;20447;-66
2021/05/15 00:07:47;;;;;;;5.77;2.57;;;14.20;70.90;;;;;;5094809;28;20443;-66
2021/05/15 00:10:14;;;;;;;4.73;3.30;;;14.20;71.30;;;;;;5094796;28;20534;-66
2021/05/15 00:12:41;;;;;;;9.97;5.07;;;14.20;71.80;;;;;;5094697;28;20513;-66
2021/05/15 00:15:10;;;;;;;6.80;2.90;;;14.20;72.20;;;;;;5094442;28;20444;-66
2021/05/15 00:17:37;;;;;;;6.50;2.70;;;14.20;72.50;;;;;;5094553;28;20427;-66
2021/05/15 00:20:05;;;;;;;6.23;3.17;;;14.20;72.70;;;;;;5094559;28;20448;-66
2021/05/15 00:22:31;;;;;;;4.23;2.50;;;14.20;72.30;;;;;;5094499;28;20455;-66
2021/05/15 00:24:57;;;;;;;3.90;1.57;;;14.10;71.80;;;;;;5094464;28;20452;-66
2021/05/15 00:27:24;;;;;;;6.37;1.83;;;14.10;71.40;;;;;;5094173;28;20942;-66
2021/05/15 00:29:51;;;;;;;2.73;1.37;;;14.00;70.80;;;;;;5094366;28;20444;-66
2021/05/15 00:32:17;;;;;;;2.90;1.37;;;14.00;70.70;;;;;;5094523;28;20468;-66
2021/05/15 00:34:43;;;;;;;2.43;1.47;;;13.90;70.30;;;;;;5094287;28;20455;-66
2021/05/15 00:37:09;;;;;;;2.90;1.30;;;13.80;70.00;;;;;;5094256;28;20444;-66
2021/05/15 00:39:36;;;;;;;4.40;1.67;;;13.80;69.60;;;;;;5094070;28;20480;-66
2021/05/15 00:42:02;;;;;;;3.93;1.67;;;13.70;69.80;;;;;;5093508;28;20466;-66
2021/05/15 00:44:43;;;;;;;3.03;1.40;;;13.70;70.30;;;;;;5093734;28;20455;-66
2021/05/15 00:47:13;;;;;;;3.07;1.57;;;13.60;70.20;;;;;;5093823;28;20431;-66
2021/05/15 00:49:39;;;;;;;3.00;2.00;;;13.60;70.60;;;;;;5094031;28;20563;-66
2021/05/15 00:52:05;;;;;;;2.10;1.60;;;13.60;70.80;;;;;;5093992;28;20444;-66
2021/05/15 00:54:34;;;;;;;4.23;1.97;;;13.60;71.00;;;;;;5093664;28;20960;-66
2021/05/15 00:57:01;;;;;;;2.10;1.90;;;13.60;71.00;;;;;;5093961;28;20488;-66
2021/05/15 00:59:28;;;;;;;2.20;2.00;;;13.50;71.00;;;;;;5093785;28;20479;-66
2021/05/15 01:01:54;;;;;;;3.73;1.80;;;13.50;71.20;;;;;;5093562;28;20535;-66
2021/05/15 01:04:21;;;;;;;4.40;1.87;;;13.50;71.60;;;;;;5093454;28;20989;-66
2021/05/15 01:06:47;;;;;;;2.97;1.57;;;13.50;72.00;;;;;;5093779;28;20443;-66
2021/05/15 01:09:14;;;;;;;3.37;1.73;;;13.40;72.10;;;;;;5093755;28;20444;-66
2021/05/15 01:11:40;;;;;;;4.23;1.30;;;13.40;72.50;;;;;;5093716;28;20440;-66
2021/05/15 01:14:06;;;;;;;1.40;1.30;;;13.30;72.50;;;;;;5093741;28;20529;-66
2021/05/15 01:16:32;;;;;;;2.63;1.50;;;13.30;72.70;;;;;;5093447;28;20550;-66
2021/05/15 01:18:59;;;;;;;7.83;1.40;;;13.20;73.00;;;;;;5093598;28;20484;-66
2021/05/15 01:21:26;;;;;;;2.63;1.20;;;13.20;73.30;;;;;;5093315;28;20458;-66
2021/05/15 01:23:53;;;;;;;1.70;1.60;;;13.20;73.50;;;;;;5093482;28;20459;-66
2021/05/15 01:26:22;;;;;;;1.40;1.30;;;13.20;73.50;;;;;;5094234;28;20463;-66
2021/05/15 01:28:51;;;;;;;3.40;2.00;;;13.10;73.50;;;;;;5093599;28;20522;-66
2021/05/15 01:31:17;;;;;;;1.80;1.70;;;13.10;73.80;;;;;;5093719;28;20443;-66
2021/05/15 01:33:44;;;;;;;2.17;1.97;;;13.10;74.00;;;;;;5093391;28;20517;-66
2021/05/15 01:36:10;;;;;;;3.10;1.87;;;13.10;74.30;;;;;;5093382;28;20816;-66
2021/05/15 01:38:38;;;;;;;2.50;1.67;;;13.10;74.50;;;;;;5093391;28;20476;-66
2021/05/15 01:41:05;;;;;;;4.50;2.37;;;13.10;74.60;;;;;;5093454;28;20428;-66
2021/05/15 01:43:32;;;;;;;3.20;1.77;;;13.10;74.80;;;;;;5093626;28;20459;-66
2021/05/15 01:45:59;;;;;;;2.57;1.50;;;13.10;75.00;;;;;;5093366;28;20450;-66
2021/05/15 01:48:25;;;;;;;2.00;1.67;;;13.10;75.40;;;;;;5093366;28;20820;-66
2021/05/15 01:50:57;;;;;;;4.10;2.13;;;13.10;75.60;;;;;;5093292;28;20448;-66
2021/05/15 01:53:24;;;;;;;2.07;1.87;;;13.10;75.70;;;;;;5093932;28;20467;-66
2021/05/15 01:55:51;;;;;;;2.93;2.27;;;13.10;76.00;;;;;;5097032;28;20945;-66
2021/05/15 01:58:17;;;;;;;4.37;2.00;;;13.10;76.50;;;;;;5096930;28;20480;-66
2021/05/15 02:00:43;;;;;;;2.87;2.63;;;13.10;76.90;;;;;;5097230;28;20448;-66
2021/05/15 02:03:10;;;;;;;4.03;2.90;;;13.20;77.20;;;;;;5096809;28;20459;-66
2021/05/15 02:05:36;;;;;;;3.37;3.07;;;13.20;77.30;;;;;;5097169;28;20482;-66
2021/05/15 02:08:02;;;;;;;3.37;2.80;;;13.20;77.60;;;;;;5097100;28;20448;-66
2021/05/15 02:10:29;;;;;;;5.87;3.50;;;13.30;77.90;;;;;;5097053;28;20454;-66
2021/05/15 02:12:56;;;;;;;5.60;5.20;;;13.20;77.90;;;;;;5096984;28;20459;-66
2021/05/15 02:15:23;;;;;;;5.00;4.50;;;13.30;78.40;;;;;;5096789;28;20466;-66
2021/05/15 02:17:49;;;;;;;5.00;4.47;;;13.20;79.60;;;;;;5096903;28;20428;-66
2021/05/15 02:20:15;;;;;;;4.63;4.23;;;13.30;80.30;;;;;;5096856;28;20443;-66
2021/05/15 02:22:41;;;;;;;5.93;4.40;;;13.30;80.70;;;;;;5096830;28;20467;-66
2021/05/15 02:25:09;;;;;;;4.30;4.00;;;13.30;80.60;;;;;;5096872;28;20456;-66
2021/05/15 02:27:35;;;;;;;5.10;4.40;;;13.40;81.00;;;;;;5096415;28;20861;-66
2021/05/15 02:30:04;;;;;;;4.93;4.43;;;13.40;81.00;;;;;;5096730;28;20428;-66
2021/05/15 02:32:30;;;;;;;4.53;4.13;;;13.40;81.10;;;;;;5096588;28;20540;-66
2021/05/15 02:34:56;;;;;;;4.87;4.47;;;13.40;81.00;;;;;;5096613;28;20452;-66
2021/05/15 02:37:23;;;;;;;5.57;4.70;;;13.40;81.10;;;;;;5096567;28;20808;-66
2021/05/15 02:39:49;;;;;;;5.80;4.07;;;13.40;81.10;;;;;;5096500;28;20856;-66
2021/05/15 02:42:16;;;;;;;3.73;3.43;;;13.40;81.10;;;;;;5096394;28;20532;-66
2021/05/15 02:44:42;;;;;;;5.43;5.00;;;13.40;81.00;;;;;;5096728;28;20543;-66
2021/05/15 02:47:09;;;;;;;4.33;3.93;;;13.50;81.20;;;;;;5096370;28;20443;-66
2021/05/15 02:49:36;;;;;;;4.90;4.57;;;13.50;81.50;;;;;;5096352;28;20782;-66
2021/05/15 02:52:02;;;;;;;4.40;3.77;;;13.50;81.50;;;;;;5096169;28;20497;-66
2021/05/15 02:54:28;;;;;;;5.93;4.57;;;13.50;81.60;;;;;;5096231;28;20459;-66
2021/05/15 02:56:54;;;;;;;5.23;4.77;;;13.50;81.60;;;;;;5095831;28;20813;-66
2021/05/15 02:59:21;;;;;;;4.93;4.40;;;13.50;81.50;;;;;;5096048;28;20475;-66
2021/05/15 03:01:47;;;;;;;6.60;4.10;;;13.40;81.40;;;;;;5096337;28;20444;-66
2021/05/15 03:04:14;;;;;;;4.43;4.10;;;13.40;81.20;;;;;;5095923;28;20464;-66
2021/05/15 03:06:40;;;;;;;4.77;4.30;;;13.50;81.10;;;;;;5095385;28;20440;-66
2021/05/15 03:09:06;;;;;;;5.33;4.37;;;13.50;80.90;;;;;;5095938;28;20447;-66
2021/05/15 03:11:33;;;;;;;6.30;4.20;;;13.40;80.90;;;;;;5095953;28;20443;-66
2021/05/15 03:13:59;;;;;;;5.20;4.80;;;13.40;80.80;;;;;;5095816;28;20984;-66
2021/05/15 03:16:25;;;;;;;7.23;4.30;;;13.40;80.60;;;;;;5095329;28;20479;-66
2021/05/15 03:18:51;;;;;;;5.03;4.53;;;13.40;80.40;;;;;;5095754;28;20475;-66
2021/05/15 03:21:18;;;;;;;4.10;3.70;;;13.40;80.30;;;;;;5095728;28;20504;-66
2021/05/15 03:23:45;;;;;;;4.90;3.97;;;13.40;80.20;;;;;;5095608;28;20464;-66
2021/05/15 03:26:11;;;;;;;3.97;3.67;;;13.40;80.10;;;;;;5095660;28;20440;-66
2021/05/15 03:28:37;;;;;;;3.33;3.03;;;13.40;80.00;;;;;;5095303;28;20995;-66
2021/05/15 03:31:03;;;;;;;3.20;2.80;;;13.40;79.70;;;;;;5095544;28;20447;-66
2021/05/15 03:33:29;;;;;;;5.93;2.50;;;13.40;79.80;;;;;;5095470;28;20493;-66
2021/05/15 03:35:56;;;;;;;3.90;2.50;;;13.30;79.70;;;;;;5095488;28;20447;-66
2021/05/15 03:38:23;;;;;;;4.73;3.47;;;13.30;80.00;;;;;;5095351;28;20467;-66
2021/05/15 03:40:49;;;;;;;6.40;2.93;;;13.30;80.50;;;;;;5095345;28;20440;-66
2021/05/15 03:43:15;;;;;;;2.50;2.13;;;13.20;80.60;;;;;;5094932;28;20993;-66
2021/05/15 03:45:41;;;;;;;4.93;2.50;;;13.20;80.80;;;;;;5095318;28;20443;-66
2021/05/15 03:48:08;;;;;;;4.23;2.17;;;13.20;81.10;;;;;;5095255;28;20463;-66
2021/05/15 03:50:34;;;;;;;5.43;2.47;;;13.20;81.10;;;;;;5094871;28;20998;-66
2021/05/15 03:53:00;;;;;;;5.90;3.00;;;13.20;80.90;;;;;;5095042;28;20467;-66
2021/05/15 03:55:28;;;;;;;2.70;2.30;;;13.20;81.30;;;;;;5095086;28;20452;-66
2021/05/15 03:57:54;;;;;;;2.70;2.40;;;13.20;81.60;;;;;;5095177;28;20440;-66
2021/05/15 04:00:21;;;;;;;2.87;1.80;;;13.20;81.50;;;;;;5095011;28;20447;-66
2021/05/15 04:02:48;;;;;;;6.73;2.37;;;13.20;81.30;;;;;;5094744;28;20887;-66
2021/05/15 04:05:15;;;;;;;2.83;2.53;;;13.20;81.20;;;;;;5094909;28;20460;-66
2021/05/15 04:07:41;;;;;;;2.40;1.90;;;13.20;81.10;;;;;;5094963;28;20447;-66
2021/05/15 04:10:08;;;;;;;3.53;3.03;;;13.20;80.90;;;;;;5094839;28;20443;-66
2021/05/15 04:12:36;;;;;;;4.50;3.40;;;13.20;81.10;;;;;;5094493;28;20466;-66
2021/05/15 04:15:06;;;;;;;2.80;2.23;;;13.30;81.30;;;;;;5094618;28;20454;-66
2021/05/15 04:17:32;;;;;;;3.53;2.13;;;13.30;81.10;;;;;;5093533;28;20462;-66
2021/05/15 04:19:59;;;;;;;5.67;2.80;;;13.20;81.00;;;;;;5094507;28;20483;-66
2021/05/15 04:22:25;;;;;;;2.77;2.30;;;13.30;81.30;;;;;;5094223;28;20989;-67
2021/05/15 04:24:52;;;;;;;2.67;2.47;;;13.30;81.30;;;;;;5094590;28;20448;-67
2021/05/15 04:27:19;;;;;;;5.80;2.57;;;13.30;81.40;;;;;;5094182;28;20455;-67
2021/05/15 04:29:47;;;;;;;2.50;2.30;;;13.30;81.30;;;;;;5094110;28;20926;-67
2021/05/15 04:32:13;;;;;;;6.47;3.13;;;13.30;81.50;;;;;;5094306;28;20455;-67
2021/05/15 04:34:39;;;;;;;3.30;2.70;;;13.30;81.30;;;;;;5093992;28;20447;-67
2021/05/15 04:37:06;;;;;;;3.60;2.47;;;13.40;81.60;;;;;;5094239;28;20813;-67
2021/05/15 04:39:33;;;;;;;5.07;2.30;;;13.40;81.40;;;;;;5094188;28;20476;-67
2021/05/15 04:42:01;;;;;;;2.13;2.00;;;13.40;81.20;;;;;;5093792;28;20452;-67
2021/05/15 04:44:29;;;;;;;5.90;3.10;;;13.50;81.10;;;;;;5094117;28;20452;-67
2021/05/15 04:46:56;;;;;;;3.30;3.00;;;13.50;81.20;;;;;;5094116;28;20448;-67
2021/05/15 04:49:23;;;;;;;2.87;2.67;;;13.50;81.10;;;;;;5093754;28;20443;-67
2021/05/15 04:51:49;;;;;;;8.53;3.73;;;13.40;81.10;;;;;;5094038;28;20450;-67
2021/05/15 04:54:15;;;;;;;5.80;2.60;;;13.40;81.10;;;;;;5093914;28;20475;-67
2021/05/15 04:56:42;;;;;;;4.13;3.60;;;13.50;81.90;;;;;;5093978;28;20446;-67
2021/05/15 04:59:08;;;;;;;4.30;3.00;;;13.50;82.50;;;;;;5093885;28;20475;-67
2021/05/15 05:01:34;;;;;;;3.90;3.60;;;13.40;82.40;;;;;;5093919;28;20485;-67
2021/05/15 05:04:03;;;;;;;4.60;3.67;;;13.40;82.50;;;;;;5093791;28;20474;-67
2021/05/15 05:06:30;;;;;;;3.53;3.33;;;13.40;82.70;;;;;;5094054;28;20547;-67
2021/05/15 05:08:56;;;;;;;3.90;3.60;;;13.50;83.20;;;;;;5093767;28;20440;-67
2021/05/15 05:11:22;;;;;;;4.10;3.70;;;13.50;83.30;;;;;;5093631;28;20967;-67
2021/05/15 05:13:48;;;;;;;4.20;3.90;;;13.50;83.40;;;;;;5093616;28;20837;-67
2021/05/15 05:16:14;;;;;;;4.83;3.50;;;13.50;82.80;;;;;;5093419;28;20455;-67
2021/05/15 05:18:41;;;;;;;3.63;3.33;;;13.50;82.60;;;;;;5094228;28;20483;-67
2021/05/15 05:21:08;;;;;;;3.97;3.50;;;13.60;82.30;;;;;;5094059;28;20447;-67
2021/05/15 05:23:34;;;;;;;3.90;3.60;;;13.70;82.30;;;;;;5093270;28;21004;-67
2021/05/15 05:26:00;;;;;;;4.97;3.93;;;13.70;82.10;;;;;;5093640;28;20447;-67
2021/05/15 05:28:33;;;;;;;4.50;4.10;;;13.70;82.10;;;;;;5093297;28;20440;-67
2021/05/15 05:30:59;;;;;;;3.90;3.47;;;13.80;82.10;;;;;;5093569;28;20439;-67
2021/05/15 05:33:25;;;;;;;6.27;4.30;;;13.80;82.00;;;;;;5093418;28;20463;-67
2021/05/15 05:35:52;;;;;;;5.47;4.00;;;13.80;81.90;;;;;;5093175;28;20440;-67
2021/05/15 05:38:19;;;;;;;4.60;4.20;;;13.90;81.20;;;;;;5093415;28;20497;-67
2021/05/15 05:40:45;;;;;;;4.50;4.00;;;13.90;81.00;;;;;;5093417;28;20949;-67
2021/05/15 05:43:12;;;;;;;4.97;4.57;;;13.90;81.20;;;;;;5093272;28;20471;-67
2021/05/15 05:45:38;;;;;;;5.30;4.70;;;14.00;81.20;;;;;;5093358;28;20444;-67
2021/05/15 05:48:04;;;;;;;4.50;4.20;;;14.00;81.20;;;;;;5093435;28;20443;-67
2021/05/15 05:50:31;;;;;;;5.50;5.00;;;14.00;80.90;;;;;;5093329;28;20451;-67
2021/05/15 05:52:58;;;;;;;5.50;5.00;;;13.90;80.90;;;;;;5093239;28;20468;-67
2021/05/15 05:55:25;;;;;;;5.03;4.63;;;13.80;80.90;;;;;;5093298;28;20497;-67
2021/05/15 05:57:51;;;;;;;6.50;5.90;;;13.80;81.40;;;;;;5093280;28;20842;-67
2021/05/15 06:00:18;;;;;;;5.70;5.17;;;13.90;81.50;;;;;;5093175;28;20482;-67
2021/05/15 06:02:45;;;;;;;4.77;4.37;;;13.90;81.80;;;;;;5093388;28;20459;-67
2021/05/15 06:05:12;;;;;;;5.10;4.70;;;14.00;82.10;;;;;;5093178;28;20444;-67
2021/05/15 06:07:38;;;;;;;5.13;4.73;;;14.10;82.10;;;;;;5093217;28;20479;-67
2021/05/15 06:10:05;;;;;;;5.00;4.50;;;14.10;82.30;;;;;;5093118;28;20767;-67
2021/05/15 06:12:32;;;;;;;6.50;4.40;;;14.10;81.90;;;;;;5093057;28;20499;-67
2021/05/15 06:15:00;;;;;;;4.30;4.00;;;14.20;81.80;;;;;;5092617;28;20942;-67
2021/05/15 06:17:26;;;;;;;5.50;4.93;;;14.20;82.20;;;;;;5093205;28;20443;-67
2021/05/15 06:19:53;;;;;;;6.50;5.20;;;14.20;81.20;;;;;;5093087;28;20495;-67
2021/05/15 06:22:19;;;;;;;6.23;5.63;;;14.10;81.70;;;;;;5092977;28;20447;-66
2021/05/15 06:24:45;;;;;;;5.67;5.00;;;14.10;81.60;;;;;;5093254;28;20439;-66
2021/05/15 06:27:11;;;;;;;6.87;4.83;;;14.10;81.00;;;;;;5092996;28;20520;-66
2021/05/15 06:29:38;;;;;;;6.83;6.23;;;14.10;81.40;;;;;;5093157;28;20467;-66
2021/05/15 06:32:05;;;;;;;6.70;6.10;;;14.10;80.90;;;;;;5092860;28;20462;-66
2021/05/15 06:34:31;;;;;;;5.73;5.20;;;14.10;81.20;;;;;;5092895;28;20539;-66
2021/05/15 06:36:57;;;;;;;5.53;5.03;;;14.10;81.10;;;;;;5092896;28;20489;-66
2021/05/15 06:39:24;;;;;;;8.60;7.13;;;14.20;81.20;;;;;;5092769;28;20487;-66
2021/05/15 06:41:50;;;;;;;6.93;6.33;;;14.20;80.60;;;;;;5095880;28;20454;-66
2021/05/15 06:44:16;;;;;;;7.00;6.40;;;14.30;80.70;;;;;;5096309;28;20472;-66
2021/05/15 06:46:43;;;;;;;7.23;6.47;;;14.40;80.50;;;;;;5096363;28;20482;-66
2021/05/15 06:49:10;;;;;;;8.30;6.73;;;14.30;79.10;;;;;;5096128;28;20452;-67
2021/05/15 06:51:36;;;;;;;7.00;6.30;;;14.30;79.60;;;;;;5096259;28;20443;-67
2021/05/15 06:54:03;;;;;;;7.00;6.30;;;14.10;80.00;;;;;;5096065;28;20498;-67
2021/05/15 06:56:30;;;;;;;5.53;5.10;;;14.10;79.70;;;;;;5095922;28;20979;-67
2021/05/15 06:58:56;;;;;;;5.50;5.03;;;13.80;78.50;;;;;;5096081;28;20483;-67
2021/05/15 07:01:22;;;;;;;6.07;5.47;;;13.80;80.60;;;;;;5096180;28;20464;-67
2021/05/15 07:03:49;;;;;;;5.47;5.03;;;13.70;80.90;;;;;;5095717;28;20948;-67
2021/05/15 07:06:15;;;;;;;6.07;5.57;;;13.60;80.60;;;;;;5096030;28;20440;-67
2021/05/15 07:08:42;;;;;;;6.83;6.17;;;13.60;80.60;;;;;;5096022;28;20443;-66
2021/05/15 07:11:08;;;;;;;6.50;5.90;;;13.50;79.90;;;;;;5096044;28;20561;-67
2021/05/15 07:13:34;;;;;;;7.43;6.50;;;13.40;81.00;;;;;;5095844;28;20459;-67
2021/05/15 07:16:00;;;;;;;9.33;7.10;;;13.30;81.40;;;;;;5095771;28;20451;-66
2021/05/15 07:18:27;;;;;;;7.83;6.63;;;13.40;82.40;;;;;;5095859;28;20871;-66
2021/05/15 07:20:54;;;;;;;6.60;6.00;;;13.30;81.90;;;;;;5095767;28;20455;-66
2021/05/15 07:23:20;;;;;;;7.60;6.90;;;13.50;82.50;;;;;;5095564;28;20460;-66
2021/05/15 07:25:47;;;;;;;11.43;7.10;;;13.50;82.70;;;;;;5095658;28;20448;-66
2021/05/15 07:28:13;;;;;;;6.93;6.33;;;13.70;83.30;;;;;;5095628;28;20452;-66
2021/05/15 07:30:39;;;;;;;7.40;6.80;;;13.90;82.50;;;;;;5095566;28;20440;-66
2021/05/15 07:33:07;;;;;;;8.23;7.10;;;14.20;82.20;;;;;;5095422;28;20468;-66
2021/05/15 07:35:33;;;;;;;7.63;6.93;;;14.50;82.40;;;;;;5095234;28;20925;-66
2021/05/15 07:38:01;;;;;;;8.80;7.93;;;14.70;80.50;;;;;;5095770;28;20448;-66
2021/05/15 07:40:27;;;;;;;9.57;8.67;;;14.80;80.10;;;;;;5095292;28;20487;-66
2021/05/15 07:42:53;;;;;;;9.77;8.77;;;15.10;80.60;;;;;;5095274;28;20493;-66
2021/05/15 07:45:19;;;;;;;9.23;8.33;;;15.10;78.80;;;;;;5095303;28;20472;-66
2021/05/15 07:47:46;;;;;;;9.70;8.80;;;15.20;76.30;;;;;;5094979;28;20937;-66
2021/05/15 07:50:12;;;;;;;10.07;9.07;;;15.10;75.20;;;;;;5094915;28;20440;-66
2021/05/15 07:52:39;;;;;;;9.93;9.03;;;15.00;76.30;;;;;;5095021;28;20459;-66
2021/05/15 07:55:07;;;;;;;8.83;8.03;;;15.10;77.00;;;;;;5095171;28;20794;-66
2021/05/15 07:57:34;;;;;;;9.17;8.37;;;15.00;76.40;;;;;;5095058;28;20588;-66
2021/05/15 08:00:00;;;;;;;10.43;9.40;;;15.10;76.90;;;;;;5094988;28;20472;-66
2021/05/15 08:02:28;;;;;;;8.97;8.13;;;15.20;76.50;;;;;;5094908;28;20490;-66
2021/05/15 08:04:55;;;;;;;10.47;7.07;;;15.30;75.90;;;;;;5094947;28;20466;-66
2021/05/15 08:07:22;;;;;;;9.17;8.47;;;15.50;75.90;;;;;;5094859;28;20470;-67
2021/05/15 08:09:48;;;;;;;8.10;7.30;;;15.60;76.60;;;;;;5094769;28;20443;-66
2021/05/15 08:12:15;;;;;;;7.27;6.57;;;15.80;73.80;;;;;;5094797;28;20428;-66
2021/05/15 08:14:41;;;;;;;6.80;6.30;;;15.90;71.50;;;;;;5094813;28;20481;-66
2021/05/15 08:17:08;;;;;;;7.40;6.70;;;16.10;70.70;;;;;;5094350;28;20460;-66
2021/05/15 08:19:34;;;;;;;7.13;6.53;;;16.30;69.30;;;;;;5094798;28;20468;-66
2021/05/15 08:22:00;;;;;;;6.53;6.03;;;16.30;68.90;;;;;;5094579;28;20443;-66
2021/05/15 08:24:27;;;;;;;6.57;5.97;;;16.20;66.70;;;;;;5094487;28;20472;-66
2021/05/15 08:26:55;;;;;;;6.10;5.50;;;16.30;68.60;;;;;;5094202;28;20938;-66
2021/05/15 08:29:23;;;;;;;6.80;6.20;;;16.50;66.80;;;;;;5094487;28;20428;-66
2021/05/15 08:31:49;;;;;;;4.30;3.93;;;16.60;66.10;;;;;;5094397;28;20526;-66
2021/05/15 08:34:16;;;;;;;5.97;5.40;;;16.90;65.90;;;;;;5094405;28;20977;-66
2021/05/15 08:36:42;;;;;;;5.87;5.27;;;17.30;64.30;;;;;;5094417;28;20432;-66
2021/05/15 08:39:09;;;;;;;5.80;5.30;;;17.50;65.40;;;;;;5094233;28;20850;-66
2021/05/15 08:41:35;;;;;;;5.33;4.80;;;17.60;59.80;;;;;;5093961;28;20866;-67
2021/05/15 08:44:03;;;;;;;5.07;4.53;;;17.80;59.00;;;;;;5094277;28;20475;-67
2021/05/15 08:46:31;;;;;;;4.30;4.00;;;18.10;60.20;;;;;;5094767;28;20439;-67
2021/05/15 08:48:59;;;;;;;4.93;4.40;;;18.30;58.40;;;;;;5094092;28;20942;-67
2021/05/15 08:51:26;;;;;;;11.60;4.53;;;18.40;56.50;;;;;;5094173;28;20447;-67
2021/05/15 08:53:53;;;;;;;5.70;4.60;;;18.30;57.10;;;;;;5094050;28;20844;-67
2021/05/15 08:56:19;;;;;;;5.70;4.00;;;18.50;57.60;;;;;;5094075;28;20435;-67
2021/05/15 08:58:46;;;;;;;7.90;5.20;;;18.60;57.10;;;;;;5093585;28;20997;-67
2021/05/15 09:01:13;;;;;;;6.73;4.80;;;18.80;55.80;;;;;;5093979;28;20454;-67
2021/05/15 09:03:41;;;;;;;4.27;3.83;;;19.00;56.10;;;;;;5093365;28;20482;-67
2021/05/15 09:06:07;;;;;;;6.93;4.93;;;19.30;55.70;;;;;;5093889;28;20510;-67
2021/05/15 09:08:33;;;;;;;4.57;4.17;;;19.60;54.80;;;;;;5093953;28;20447;-67
2021/05/15 09:10:59;;;;;;;6.87;4.63;;;19.60;53.90;;;;;;5093806;28;20454;-67
2021/05/15 09:13:28;;;;;;;5.13;4.63;;;19.80;53.80;;;;;;5093721;28;20471;-67
2021/05/15 09:15:57;;;;;;;4.90;4.50;;;19.80;52.40;;;;;;5093462;28;20471;-67
2021/05/15 09:18:25;;;;;;;4.33;3.93;;;19.50;51.10;;;;;;5093758;28;20534;-67
2021/05/15 09:20:55;;;;;;;4.77;4.33;;;19.50;52.60;;;;;;5093397;28;20929;-67
2021/05/15 09:23:22;;;;;;;4.73;4.23;;;19.60;52.40;;;;;;5093304;28;20471;-67
2021/05/15 09:25:58;;;;;;;4.40;4.00;;;19.70;52.90;;;;;;5093664;28;20850;-67
2021/05/15 09:28:39;;;;;;;9.43;3.77;;;19.90;52.20;;;;;;5093642;28;20443;-67
2021/05/15 09:31:10;;;;;;;4.33;3.93;;;20.20;52.50;;;;;;5093607;28;20457;-67
2021/05/15 09:33:36;;;;;;;4.30;4.00;;;20.20;50.80;;;;;;5093722;28;20460;-67
2021/05/15 09:36:12;;;;;;;4.50;4.10;;;19.90;49.90;;;;;;5093574;28;20443;-67
2021/05/15 09:38:39;;;;;;;4.70;4.40;;;19.60;50.90;;;;;;5093539;28;20447;-67
2021/05/15 09:41:05;;;;;;;6.63;4.70;;;19.30;52.30;;;;;;5093484;28;20493;-67
2021/05/15 09:43:31;;;;;;;5.20;4.70;;;19.00;54.10;;;;;;5093449;28;20447;-67
2021/05/15 09:45:57;;;;;;;5.20;4.70;;;18.70;54.00;;;;;;5093487;28;20905;-67
2021/05/15 09:48:35;;;;;;;4.90;4.50;;;18.50;54.00;;;;;;5093469;28;20444;-67
2021/05/15 09:51:12;;;;;;;5.17;4.70;;;18.60;55.20;;;;;;5093461;28;20424;-67
2021/05/15 09:53:39;;;;;;;5.70;5.03;;;18.50;54.80;;;;;;5093344;28;20463;-67
2021/05/15 09:56:05;;;;;;;5.50;4.73;;;18.40;55.20;;;;;;5093068;28;20862;-67
2021/05/15 09:58:31;;;;;;;6.13;4.90;;;18.20;55.40;;;;;;5092937;28;20938;-67
2021/05/15 10:00:58;;;;;;;5.87;4.80;;;18.00;56.40;;;;;;5093011;28;20530;-67
2021/05/15 10:03:26;;;;;;;5.97;5.47;;;17.90;57.10;;;;;;5093203;28;20467;-66
2021/05/15 10:06:00;;;;;;;6.00;5.40;;;17.70;59.40;;;;;;5093308;28;20518;-66
2021/05/15 10:08:27;;;;;;;4.30;3.90;;;17.20;62.20;;;;;;5093270;28;20439;-66
2021/05/15 10:10:54;;;;;;;3.90;3.60;;;16.90;64.60;;;;;;5093216;28;20436;-67
2021/05/15 10:13:20;;;;;;;3.50;3.13;;;16.80;66.40;;;;;;5093122;28;20463;-66
2021/05/15 10:15:47;;;;;;;4.87;4.20;;;16.50;67.70;;;;;;5094417;28;20949;-66
2021/05/15 10:18:13;;;;;;;5.73;4.97;;;16.40;68.10;;;;;;5097051;28;20475;-66
2021/05/15 10:20:40;;;;;;;8.50;5.03;;;16.20;69.80;;;;;;5096885;28;20479;-67
2021/05/15 10:23:16;;;;;;;7.97;5.20;;;16.20;71.40;;;;;;5096965;28;20483;-66
2021/05/15 10:25:43;;;;;;;6.63;5.57;;;16.10;72.00;;;;;;5096629;28;20438;-66
2021/05/15 10:28:10;;;;;;;5.13;4.63;;;16.00;71.60;;;;;;5096866;28;20447;-68
2021/05/15 10:30:36;;;;;;;5.20;4.70;;;16.00;71.60;;;;;;5096555;28;21006;-68
2021/05/15 10:33:09;;;;;;;6.50;4.17;;;16.00;73.00;;;;;;5096746;28;20460;-68
2021/05/15 10:35:42;;;;;;;3.90;3.57;;;16.00;72.20;;;;;;5096558;28;20431;-68
2021/05/15 10:38:10;;;;;;;3.33;2.60;;;16.10;72.90;;;;;;5096945;28;20432;-68
2021/05/15 10:40:48;;;;;;;5.47;2.60;;;16.10;72.70;;;;;;5096589;28;20540;-68
2021/05/15 10:43:29;;;;;;;6.80;3.17;;;16.40;72.40;;;;;;5096536;28;20471;-68
2021/05/15 10:45:55;;;;;;;3.43;2.60;;;16.50;71.40;;;;;;5096263;28;20432;-68
2021/05/15 10:48:26;;;;;;;4.20;3.80;;;16.80;71.20;;;;;;5096464;28;20436;-68
2021/05/15 10:50:54;;;;;;;5.83;3.60;;;17.30;70.80;;;;;;5096997;28;20459;-69
2021/05/15 10:53:22;;;;;;;3.57;3.27;;;17.90;69.40;;;;;;5096058;28;20455;-69
2021/05/15 10:56:11;;;;;;;3.13;2.83;;;18.30;64.20;;;;;;5096373;28;20448;-69
2021/05/15 10:58:39;;;;;;;4.47;2.83;;;18.90;65.80;;;;;;5096248;28;20460;-69
2021/05/15 11:01:14;;;;;;;3.80;2.83;;;19.40;63.70;;;;;;5096462;28;20439;-69
2021/05/15 11:03:40;;;;;;;3.53;3.23;;;20.10;62.40;;;;;;5096312;28;20470;-69
2021/05/15 11:06:18;;;;;;;3.57;3.17;;;20.70;57.10;;;;;;5096384;28;20473;-69
2021/05/15 11:08:56;;;;;;;6.57;3.70;;;21.40;57.30;;;;;;5095818;28;20924;-69
2021/05/15 11:11:36;;;;;;;3.70;3.40;;;21.90;52.00;;;;;;5096104;28;20514;-69
2021/05/15 11:14:02;;;;;;;3.67;3.17;;;22.10;52.80;;;;;;5095955;28;20850;-69
2021/05/15 11:16:33;;;;;;;3.90;3.53;;;22.30;51.70;;;;;;5095858;28;20451;-69
2021/05/15 11:19:09;;;;;;;4.50;3.50;;;22.40;52.70;;;;;;5095607;28;20497;-69
2021/05/15 11:21:36;;;;;;;5.40;3.83;;;22.40;52.70;;;;;;5095906;28;20438;-69
2021/05/15 11:24:04;;;;;;;5.23;2.90;;;22.50;52.50;;;;;;5095885;28;20519;-69
2021/05/15 11:26:48;;;;;;;4.70;3.20;;;22.50;49.40;;;;;;5094953;28;20474;-69
2021/05/15 11:29:14;;;;;;;8.13;3.83;;;22.40;49.70;;;;;;5095750;28;20830;-69
2021/05/15 11:31:41;;;;;;;8.30;3.60;;;22.20;49.60;;;;;;5095346;28;20925;-69
2021/05/15 11:34:12;;;;;;;2.80;2.60;;;21.80;50.10;;;;;;5095621;28;20521;-69
2021/05/15 11:36:40;;;;;;;3.50;3.20;;;21.70;51.70;;;;;;5095816;28;20448;-69
2021/05/15 11:39:09;;;;;;;4.50;2.83;;;21.80;52.40;;;;;;5095604;28;20530;-69
2021/05/15 11:41:35;;;;;;;3.07;2.70;;;21.90;51.40;;;;;;5095485;28;20505;-69
2021/05/15 11:44:02;;;;;;;3.73;3.03;;;21.90;50.50;;;;;;5095350;28;20472;-69
2021/05/15 11:46:29;;;;;;;4.43;3.20;;;22.30;49.70;;;;;;5095333;28;20505;-70
2021/05/15 11:48:55;;;;;;;4.40;2.00;;;22.70;48.70;;;;;;5095259;28;20454;-70
2021/05/15 11:51:21;;;;;;;4.10;3.03;;;23.20;48.20;;;;;;5095301;28;20812;-70
2021/05/15 11:53:50;;;;;;;3.03;1.93;;;23.60;45.40;;;;;;5094863;28;21004;-70
2021/05/15 11:56:17;;;;;;;2.40;2.00;;;23.90;44.60;;;;;;5095230;28;20444;-70
2021/05/15 11:58:45;;;;;;;2.17;1.97;;;24.40;44.70;;;;;;5095073;28;20455;-70
2021/05/15 12:01:16;;;;;;;2.57;2.00;;;24.40;43.10;;;;;;5095093;28;20448;-70
2021/05/15 12:03:43;;;;;;;2.43;2.20;;;24.80;44.20;;;;;;5095041;28;20470;-70
2021/05/15 12:06:13;;;;;;;1.60;1.50;;;25.10;41.90;;;;;;5094980;28;20452;-70
2021/05/15 12:08:40;;;;;;;4.70;2.30;;;25.60;42.80;;;;;;5094600;28;20929;-70
2021/05/15 12:11:07;;;;;;;3.10;1.83;;;26.50;39.70;;;;;;5094896;28;20571;-70
2021/05/15 12:13:33;;;;;;;2.50;2.30;;;27.30;37.90;;;;;;5094776;28;20471;-70
2021/05/15 12:16:01;;;;;;;1.60;1.50;;;27.80;35.70;;;;;;5094675;28;20467;-70
2021/05/15 12:18:28;;;;;;;2.80;2.60;;;27.60;35.50;;;;;;5094857;28;20474;-70
2021/05/15 12:20:55;;;;;;;2.07;1.87;;;27.20;36.20;;;;;;5095462;28;20479;-70
2021/05/15 12:23:23;;;;;;;1.97;1.60;;;26.70;37.70;;;;;;5094316;28;20503;-70
2021/05/15 12:25:57;;;;;;;1.73;1.63;;;26.10;37.70;;;;;;5094695;28;20500;-70
2021/05/15 12:28:25;;;;;;;2.40;1.80;;;25.40;37.50;;;;;;5094896;28;20444;-70
2021/05/15 12:30:52;;;;;;;1.90;1.70;;;24.90;38.10;;;;;;5094576;28;20467;-70
2021/05/15 12:33:20;;;;;;;2.43;1.23;;;24.50;40.00;;;;;;5094249;28;20464;-70
2021/05/15 12:36:03;;;;;;;2.13;1.40;;;24.30;41.90;;;;;;5094495;28;20444;-70
2021/05/15 12:38:30;;;;;;;3.73;1.70;;;24.20;42.10;;;;;;5093937;28;20427;-70
2021/05/15 12:41:10;;;;;;;1.67;1.47;;;24.10;41.50;;;;;;5094201;28;20475;-70
2021/05/15 12:43:39;;;;;;;1.33;1.23;;;23.90;40.60;;;;;;5094271;28;20459;-70
2021/05/15 12:46:16;;;;;;;3.20;1.20;;;23.50;42.50;;;;;;5094228;28;20447;-70